Terminal Aerodrome Forecast
Issued by NWS

Home | Current Version | Previous Version | Text Only | Print | Product List | Glossary On
Versions: 1 2 3 4 5 6 7 8 9 10 11 12 13 14 15 16 17 18 19 20 21 22 23 24
000
FTUS41 KOKX 192000 AAA
TAFHPN
TAF AMD
KHPN 192040Z 1921/2018 15007KT P6SM FEW050
     FM200500 14002KT P6SM SCT025
     FM200900 14003KT P6SM OVC020
     FM201400 16007KT P6SM BKN030
     FM201600 16009KT P6SM SCT035
      AMD NOT SKED=

USA.gov is the U.S. government's official web portal to all federal, state and local government web resources and services.